Time;durP1;ratioP1;P1;durP2;ratioP2;P2;SDS_P1;SDS_P2;PMS_P1;PMS_P2;Temp;Humidity;BMP_temperature;BMP_pressure;BME280_temperature;BME280_humidity;BME280_pressure;Samples;Min_cycle;Max_cycle;Signal;HPM_P1;HPM_P2
2021/06/19 00:00:39;;;;;;;16.38;8.45;;;25.20;99.90;;;;;;5113305;28;20051;-95
2021/06/19 00:03:05;;;;;;;16.60;8.05;;;25.10;99.90;;;;;;5111635;28;20518;-94
2021/06/19 00:05:32;;;;;;;14.75;8.18;;;25.10;99.90;;;;;;5115471;28;20076;-94
2021/06/19 00:07:58;;;;;;;12.43;7.63;;;25.10;99.90;;;;;;5111664;28;20027;-94
2021/06/19 00:10:24;;;;;;;14.57;7.65;;;25.10;99.90;;;;;;5108760;28;20023;-95
2021/06/19 00:12:51;;;;;;;14.77;7.32;;;25.10;99.90;;;;;;5114811;28;20623;-94
2021/06/19 00:15:19;;;;;;;12.85;7.28;;;24.90;99.90;;;;;;5110907;28;20024;-94
2021/06/19 00:17:45;;;;;;;17.35;8.15;;;24.90;99.90;;;;;;5112505;28;20028;-95
2021/06/19 00:20:23;;;;;;;19.02;8.05;;;24.80;99.90;;;;;;5114902;28;20024;-95
2021/06/19 00:22:49;;;;;;;14.55;7.43;;;24.80;99.90;;;;;;5111758;28;20070;-95
2021/06/19 00:25:16;;;;;;;19.67;7.43;;;24.90;99.90;;;;;;5107380;28;20047;-94
2021/06/19 00:27:42;;;;;;;15.35;7.28;;;24.70;99.90;;;;;;5114093;28;20086;-95
2021/06/19 00:30:09;;;;;;;10.13;6.97;;;24.70;99.90;;;;;;5113481;28;20012;-95
2021/06/19 00:32:35;;;;;;;13.93;7.30;;;24.70;99.90;;;;;;5115619;28;20043;-95
2021/06/19 00:35:02;;;;;;;12.15;7.20;;;24.70;99.90;;;;;;5115102;28;20038;-95
2021/06/19 00:37:27;;;;;;;12.57;7.03;;;24.70;99.90;;;;;;5115644;28;20019;-95
2021/06/19 00:39:53;;;;;;;11.98;6.82;;;24.60;99.90;;;;;;5113331;28;20110;-95
2021/06/19 00:42:19;;;;;;;11.05;6.93;;;24.70;99.90;;;;;;5112379;28;20055;-94
2021/06/19 00:44:45;;;;;;;11.88;6.30;;;24.60;99.90;;;;;;5114394;28;20028;-95
2021/06/19 00:47:11;;;;;;;11.95;7.03;;;24.50;99.90;;;;;;5113976;28;20035;-95
2021/06/19 00:49:36;;;;;;;12.35;6.38;;;24.50;99.90;;;;;;5113878;28;20459;-95
2021/06/19 00:52:05;;;;;;;9.20;6.32;;;24.50;99.90;;;;;;5113993;28;20027;-95
2021/06/19 00:54:31;;;;;;;17.23;6.97;;;24.50;99.90;;;;;;5115342;28;20022;-95
2021/06/19 00:56:57;;;;;;;9.38;6.22;;;24.50;99.90;;;;;;5111592;28;20032;-94
2021/06/19 00:59:23;;;;;;;15.30;7.13;;;24.50;99.90;;;;;;5115830;27;20028;-95
2021/06/19 01:01:49;;;;;;;12.02;6.57;;;24.40;99.90;;;;;;5111723;28;20035;-94
2021/06/19 01:04:15;;;;;;;16.20;6.35;;;24.30;99.90;;;;;;5112255;28;20424;-95
2021/06/19 01:06:41;;;;;;;11.73;6.55;;;24.30;99.90;;;;;;5113658;28;20023;-94
2021/06/19 01:09:10;;;;;;;11.02;6.80;;;24.40;99.90;;;;;;5112868;28;20032;-94
2021/06/19 01:11:37;;;;;;;11.65;6.22;;;24.40;99.90;;;;;;5113685;28;20077;-95
2021/06/19 01:14:04;;;;;;;11.57;6.35;;;24.30;99.90;;;;;;5125582;27;20067;-94
2021/06/19 01:16:30;;;;;;;12.65;6.85;;;24.20;99.90;;;;;;5110782;28;20024;-94
2021/06/19 01:18:56;;;;;;;10.20;6.78;;;24.20;99.90;;;;;;5111206;28;20453;-95
2021/06/19 01:21:27;;;;;;;10.55;5.88;;;24.10;99.90;;;;;;5110497;28;20027;-95
2021/06/19 01:23:53;;;;;;;12.02;6.63;;;24.20;99.90;;;;;;5112791;28;20024;-94
2021/06/19 01:26:21;;;;;;;9.68;6.22;;;24.20;99.90;;;;;;5115324;27;20053;-95
2021/06/19 01:28:48;;;;;;;11.45;7.03;;;24.10;99.90;;;;;;5111875;28;20032;-94
2021/06/19 01:31:14;;;;;;;13.23;6.90;;;23.90;99.90;;;;;;5113710;28;20035;-95
2021/06/19 01:33:43;;;;;;;12.40;7.22;;;23.30;99.90;;;;;;5113108;28;20055;-95
2021/06/19 01:36:10;;;;;;;21.58;7.15;;;22.90;99.90;;;;;;5111480;28;20112;-94
2021/06/19 01:38:45;;;;;;;16.27;8.77;;;22.40;99.90;;;;;;5116695;28;20028;-96
2021/06/19 01:41:16;;;;;;;18.50;9.38;;;21.30;99.90;;;;;;5132770;27;20097;-96
2021/06/19 01:43:43;;;;;;;12.43;8.70;;;20.60;99.90;;;;;;5100607;28;20040;-95
2021/06/19 01:46:10;;;;;;;15.75;10.23;;;20.90;99.90;;;;;;5101889;28;20024;-94
2021/06/19 01:48:36;;;;;;;17.33;9.43;;;21.10;99.90;;;;;;5114012;28;20061;-95
2021/06/19 01:51:01;;;;;;;13.30;8.63;;;21.40;99.90;;;;;;5112957;28;20016;-94
2021/06/19 01:53:27;;;;;;;17.50;10.40;;;21.50;99.90;;;;;;5114143;28;20506;-94
2021/06/19 01:55:53;;;;;;;15.63;9.57;;;21.90;9.70;;;;;;5112737;28;20026;-94
2021/06/19 01:58:19;;;;;;;17.63;10.23;;;22.00;1.00;;;;;;5111381;28;20106;-94
2021/06/19 02:00:45;;;;;;;16.33;10.32;;;22.20;1.00;;;;;;5113025;28;20055;-93
2021/06/19 02:03:11;;;;;;;16.88;10.55;;;22.50;99.90;;;;;;5112020;28;20472;-94
2021/06/19 02:05:37;;;;;;;14.15;9.65;;;22.60;53.20;;;;;;5113952;28;20043;-94
2021/06/19 02:08:05;;;;;;;17.63;9.90;;;22.70;1.00;;;;;;5113389;28;20030;-93
2021/06/19 02:10:34;;;;;;;15.48;9.82;;;23.00;1.00;;;;;;5112313;28;20091;-94
2021/06/19 02:13:01;;;;;;;17.67;9.50;;;23.00;1.00;;;;;;5112121;28;20407;-94
2021/06/19 02:15:27;;;;;;;18.83;9.30;;;23.10;1.00;;;;;;5112527;28;20082;-94
2021/06/19 02:17:55;;;;;;;14.10;8.95;;;23.10;1.00;;;;;;5112604;28;20054;-94
2021/06/19 02:20:22;;;;;;;12.98;8.30;;;23.20;1.00;;;;;;5114377;28;20030;-94
2021/06/19 02:22:48;;;;;;;16.63;8.40;;;23.20;99.90;;;;;;5111932;28;20111;-94
2021/06/19 02:25:17;;;;;;;14.57;7.63;;;23.30;99.90;;;;;;5111361;28;20027;-94
2021/06/19 02:27:57;;;;;;;11.65;7.43;;;23.40;99.90;;;;;;5113786;28;20403;-94
2021/06/19 02:30:25;;;;;;;9.77;7.60;;;23.30;99.90;;;;;;5110921;28;20087;-94
2021/06/19 02:32:52;;;;;;;16.25;7.97;;;23.30;99.90;;;;;;5112450;28;20047;-94
2021/06/19 02:35:19;;;;;;;15.07;7.95;;;23.40;99.90;;;;;;5113311;28;20035;-95
2021/06/19 02:37:45;;;;;;;12.60;7.70;;;23.40;99.90;;;;;;5109642;28;20020;-94
2021/06/19 02:40:11;;;;;;;12.88;7.25;;;23.40;99.90;;;;;;5111594;28;20028;-94
2021/06/19 02:42:37;;;;;;;12.27;7.70;;;23.50;99.90;;;;;;5111962;28;20069;-95
2021/06/19 02:45:10;;;;;;;13.63;7.88;;;23.50;99.90;;;;;;5111052;28;20110;-95
2021/06/19 02:47:37;;;;;;;11.65;7.47;;;23.60;99.90;;;;;;5113786;28;20032;-95
2021/06/19 02:50:05;;;;;;;13.50;7.53;;;23.50;99.90;;;;;;5116602;28;20016;-94
2021/06/19 02:52:31;;;;;;;15.02;7.53;;;23.50;99.90;;;;;;5115277;28;20039;-94
2021/06/19 02:54:56;;;;;;;13.77;7.28;;;23.40;99.90;;;;;;5116079;28;20028;-94
2021/06/19 02:57:22;;;;;;;11.18;7.65;;;23.40;99.90;;;;;;5115146;28;20020;-94
2021/06/19 02:59:47;;;;;;;13.88;7.55;;;23.40;99.90;;;;;;5114964;28;20403;-94
2021/06/19 03:02:13;;;;;;;12.38;7.25;;;23.40;99.90;;;;;;5117283;28;20027;-95
2021/06/19 03:04:38;;;;;;;11.80;7.57;;;23.30;99.90;;;;;;5113726;28;20030;-94
2021/06/19 03:07:04;;;;;;;13.52;7.07;;;23.30;99.90;;;;;;5116384;28;20024;-94
2021/06/19 03:09:30;;;;;;;13.02;7.80;;;23.40;99.90;;;;;;5115560;28;20080;-95
2021/06/19 03:11:55;;;;;;;14.23;8.00;;;23.50;99.90;;;;;;5115753;28;20105;-95
2021/06/19 03:14:21;;;;;;;12.90;7.30;;;23.50;99.90;;;;;;5117756;28;20024;-95
2021/06/19 03:16:46;;;;;;;13.82;7.80;;;23.50;99.90;;;;;;5114649;28;20365;-94
2021/06/19 03:19:12;;;;;;;12.57;7.43;;;23.50;99.90;;;;;;5114518;28;20116;-95
2021/06/19 03:21:38;;;;;;;12.70;7.90;;;23.50;99.90;;;;;;5114629;28;20388;-94
2021/06/19 03:24:04;;;;;;;12.23;7.85;;;23.40;99.90;;;;;;5115901;28;20403;-94
2021/06/19 03:26:30;;;;;;;11.70;8.18;;;23.40;99.90;;;;;;5117695;28;20058;-96
2021/06/19 03:28:56;;;;;;;12.27;7.75;;;23.30;99.90;;;;;;5115633;28;20039;-94
2021/06/19 03:31:21;;;;;;;13.30;7.88;;;23.30;99.90;;;;;;5114399;28;20032;-94
2021/06/19 03:33:47;;;;;;;15.07;8.15;;;23.30;99.90;;;;;;5115754;28;20060;-94
2021/06/19 03:36:13;;;;;;;12.13;7.53;;;23.20;99.90;;;;;;5113983;28;20115;-94
2021/06/19 03:38:38;;;;;;;10.35;7.75;;;23.20;99.90;;;;;;5116616;28;20039;-95
2021/06/19 03:41:04;;;;;;;15.85;7.95;;;23.00;99.90;;;;;;5115340;28;20020;-95
2021/06/19 03:43:29;;;;;;;15.07;8.68;;;23.10;99.90;;;;;;5114106;28;20437;-95
2021/06/19 03:45:55;;;;;;;12.82;8.15;;;23.20;99.90;;;;;;5130546;27;20020;-95
2021/06/19 03:48:20;;;;;;;11.13;7.60;;;23.20;99.90;;;;;;5111999;28;20024;-94
2021/06/19 03:50:46;;;;;;;14.65;8.43;;;23.20;99.90;;;;;;5116450;28;20011;-94
2021/06/19 03:53:12;;;;;;;13.73;8.43;;;23.20;99.90;;;;;;5114837;28;20124;-94
2021/06/19 03:55:37;;;;;;;12.90;9.07;;;23.20;99.90;;;;;;5115586;28;20491;-95
2021/06/19 03:58:03;;;;;;;14.15;8.63;;;23.30;99.90;;;;;;5113093;28;20038;-94
2021/06/19 04:00:30;;;;;;;13.40;8.27;;;23.30;99.90;;;;;;5114396;28;20024;-96
2021/06/19 04:02:56;;;;;;;15.98;8.75;;;23.30;99.90;;;;;;5113923;28;20141;-94
2021/06/19 04:05:22;;;;;;;11.63;8.60;;;23.30;99.90;;;;;;5115849;28;20023;-95
2021/06/19 04:07:48;;;;;;;14.40;8.02;;;23.40;99.90;;;;;;5112548;28;20119;-94
2021/06/19 04:10:15;;;;;;;13.35;8.70;;;23.40;99.90;;;;;;5112868;28;20047;-95
2021/06/19 04:12:41;;;;;;;12.75;8.05;;;23.40;99.90;;;;;;5114856;28;20032;-95
2021/06/19 04:15:08;;;;;;;14.85;8.68;;;23.40;99.90;;;;;;5114820;28;20024;-95
2021/06/19 04:17:34;;;;;;;12.43;8.38;;;23.40;99.90;;;;;;5116690;27;20019;-95
2021/06/19 04:20:00;;;;;;;13.90;8.57;;;23.40;99.90;;;;;;5114948;28;20026;-94
2021/06/19 04:22:25;;;;;;;12.40;8.68;;;23.40;99.90;;;;;;5113682;27;20026;-95
2021/06/19 04:24:51;;;;;;;14.10;8.48;;;23.50;99.90;;;;;;5113802;28;20027;-95
2021/06/19 04:27:20;;;;;;;10.88;8.13;;;23.50;99.90;;;;;;5114358;28;20110;-95
2021/06/19 04:29:46;;;;;;;13.98;8.25;;;23.60;99.90;;;;;;5113287;28;20023;-95
2021/06/19 04:32:13;;;;;;;13.20;8.60;;;23.50;99.90;;;;;;5114332;28;20058;-95
2021/06/19 04:34:42;;;;;;;15.93;8.60;;;23.50;99.90;;;;;;5098200;28;20035;-94
2021/06/19 04:37:09;;;;;;;12.25;8.50;;;23.60;99.90;;;;;;5119734;27;20027;-95
2021/06/19 04:39:39;;;;;;;12.82;8.13;;;23.60;99.90;;;;;;5113620;28;20043;-95
2021/06/19 04:42:07;;;;;;;13.38;8.27;;;23.60;99.90;;;;;;5113254;28;20024;-95
2021/06/19 04:47:09;;;;;;;12.32;8.73;;;23.60;99.90;;;;;;5113816;28;20034;-95
2021/06/19 04:49:35;;;;;;;10.68;7.93;;;23.70;99.90;;;;;;5113697;28;20077;-95
2021/06/19 04:52:00;;;;;;;11.00;8.18;;;23.70;99.90;;;;;;5112273;28;20032;-95
2021/06/19 04:54:26;;;;;;;12.95;8.70;;;23.70;99.90;;;;;;5113021;28;20035;-95
2021/06/19 04:56:51;;;;;;;14.68;8.60;;;23.80;99.90;;;;;;5113578;28;20032;-94
2021/06/19 04:59:17;;;;;;;13.30;8.50;;;23.80;99.90;;;;;;5116033;27;20028;-95
2021/06/19 05:01:43;;;;;;;13.27;8.23;;;23.90;99.90;;;;;;5109604;28;20508;-95
2021/06/19 05:04:08;;;;;;;11.13;8.27;;;23.80;99.90;;;;;;5112025;28;20062;-96
2021/06/19 05:06:35;;;;;;;14.05;8.73;;;23.80;99.90;;;;;;5107018;28;20426;-93
2021/06/19 05:09:02;;;;;;;11.57;8.20;;;23.90;99.90;;;;;;5111952;28;20039;-94
2021/06/19 05:11:28;;;;;;;13.02;8.20;;;23.90;99.90;;;;;;5095142;28;20063;-93
2021/06/19 05:13:53;;;;;;;13.48;8.02;;;23.90;99.90;;;;;;5126792;27;20152;-94
2021/06/19 05:16:19;;;;;;;15.82;9.07;;;23.90;99.90;;;;;;5109826;28;20061;-93
2021/06/19 05:18:44;;;;;;;13.15;8.18;;;23.90;99.90;;;;;;5113422;28;20038;-93
2021/06/19 05:21:10;;;;;;;11.63;8.50;;;24.10;99.90;;;;;;5114097;28;20487;-94
2021/06/19 05:23:36;;;;;;;14.38;8.38;;;24.10;99.90;;;;;;5116283;28;20038;-94
2021/06/19 05:26:01;;;;;;;12.43;8.40;;;24.10;99.90;;;;;;5116277;28;20024;-94
2021/06/19 05:28:27;;;;;;;18.02;9.10;;;24.10;99.90;;;;;;5115327;28;20024;-93
2021/06/19 05:30:53;;;;;;;15.07;9.13;;;24.20;99.90;;;;;;5114934;28;20027;-92
2021/06/19 05:33:18;;;;;;;11.18;8.73;;;24.30;99.90;;;;;;5115594;28;20074;-94
2021/06/19 05:35:44;;;;;;;13.70;8.50;;;24.30;99.90;;;;;;5115728;28;20020;-93
2021/06/19 05:38:10;;;;;;;14.82;8.40;;;24.30;99.90;;;;;;5114718;28;20072;-93
2021/06/19 05:40:36;;;;;;;13.60;8.75;;;24.30;99.90;;;;;;5111327;28;20031;-95
2021/06/19 05:43:01;;;;;;;15.02;8.48;;;24.40;99.90;;;;;;5109640;28;20024;-93
2021/06/19 05:45:27;;;;;;;12.63;8.93;;;24.30;99.90;;;;;;5113265;28;20096;-94
2021/06/19 05:47:53;;;;;;;11.43;7.72;;;24.30;99.90;;;;;;5111114;28;20020;-94
2021/06/19 05:50:19;;;;;;;15.85;9.32;;;24.20;99.90;;;;;;5113684;28;20368;-93
2021/06/19 05:52:44;;;;;;;14.45;9.20;;;24.20;99.90;;;;;;5114626;28;20051;-93
2021/06/19 05:55:10;;;;;;;15.55;8.38;;;24.10;99.90;;;;;;5112761;28;20061;-94
2021/06/19 05:57:37;;;;;;;11.32;8.07;;;24.30;99.90;;;;;;5111177;28;20228;-93
2021/06/19 06:00:07;;;;;;;11.45;8.45;;;24.40;99.90;;;;;;5112486;28;20024;-95
2021/06/19 06:02:33;;;;;;;17.05;8.43;;;24.60;99.90;;;;;;5113156;28;20027;-94
2021/06/19 06:04:59;;;;;;;15.15;8.50;;;24.70;99.90;;;;;;5112520;28;20423;-94
2021/06/19 06:07:24;;;;;;;13.63;8.38;;;24.80;99.90;;;;;;5113286;28;20106;-93
2021/06/19 06:09:50;;;;;;;14.25;8.32;;;24.90;99.90;;;;;;5109091;28;20028;-94
2021/06/19 06:12:16;;;;;;;14.32;8.68;;;24.90;99.90;;;;;;5115306;28;20529;-93
2021/06/19 06:14:42;;;;;;;13.10;8.05;;;25.00;99.90;;;;;;5115702;28;20042;-93
2021/06/19 06:17:07;;;;;;;13.70;8.60;;;25.00;99.90;;;;;;5115001;28;20038;-94
2021/06/19 06:19:33;;;;;;;13.63;8.93;;;25.10;99.90;;;;;;5115001;28;20035;-93
2021/06/19 06:21:59;;;;;;;14.60;8.95;;;25.10;99.90;;;;;;5113969;28;20023;-94
2021/06/19 06:24:25;;;;;;;12.18;8.75;;;25.30;99.90;;;;;;5113575;28;20030;-94
2021/06/19 06:26:50;;;;;;;16.15;8.80;;;25.40;99.90;;;;;;5114108;28;20065;-94
2021/06/19 06:29:16;;;;;;;14.57;8.32;;;25.40;99.90;;;;;;5111301;28;20028;-93
2021/06/19 06:31:42;;;;;;;14.60;9.30;;;25.40;99.90;;;;;;5108986;28;20032;-93
2021/06/19 06:34:07;;;;;;;15.75;8.13;;;25.50;99.90;;;;;;5106449;28;20069;-94
2021/06/19 06:36:33;;;;;;;15.13;8.93;;;25.40;99.90;;;;;;5112045;28;20031;-93
2021/06/19 06:39:03;;;;;;;14.63;8.85;;;25.50;99.90;;;;;;5110142;28;20032;-93
2021/06/19 06:41:28;;;;;;;16.17;9.60;;;25.70;99.90;;;;;;5125690;27;20027;-94
2021/06/19 06:43:54;;;;;;;14.00;8.60;;;25.80;99.90;;;;;;5105495;28;20395;-93
2021/06/19 06:46:20;;;;;;;17.45;8.60;;;25.60;99.90;;;;;;5112285;28;20027;-93
2021/06/19 06:48:45;;;;;;;12.45;8.10;;;25.50;99.90;;;;;;5111060;28;20523;-93
2021/06/19 06:51:12;;;;;;;13.63;8.75;;;25.40;99.90;;;;;;5110473;28;20023;-92
2021/06/19 06:53:37;;;;;;;12.23;9.60;;;25.60;99.90;;;;;;5113107;28;20032;-93
2021/06/19 06:56:03;;;;;;;12.50;9.10;;;25.90;99.90;;;;;;5110012;28;20024;-94
2021/06/19 06:58:28;;;;;;;16.63;8.93;;;25.90;99.90;;;;;;5111750;28;20468;-92
2021/06/19 07:00:54;;;;;;;13.68;8.40;;;25.80;99.90;;;;;;5105837;28;20031;-95
2021/06/19 07:03:20;;;;;;;12.38;9.00;;;25.70;99.90;;;;;;5111727;28;20020;-94
2021/06/19 07:05:45;;;;;;;10.32;8.43;;;25.90;99.90;;;;;;5112785;28;20027;-95
2021/06/19 07:08:11;;;;;;;14.48;8.65;;;25.70;99.90;;;;;;5113894;28;20035;-94
2021/06/19 07:10:37;;;;;;;16.08;8.80;;;25.80;99.90;;;;;;5110184;28;20024;-95
2021/06/19 07:13:02;;;;;;;11.77;8.43;;;25.80;99.90;;;;;;5110203;28;20036;-95
2021/06/19 07:15:28;;;;;;;16.17;9.00;;;25.70;99.90;;;;;;5111763;28;20483;-95
2021/06/19 07:17:53;;;;;;;15.15;9.07;;;26.00;99.90;;;;;;5111168;28;20069;-95
2021/06/19 07:20:20;;;;;;;13.38;9.00;;;25.50;99.90;;;;;;5113775;28;20048;-94
2021/06/19 07:22:46;;;;;;;15.93;9.10;;;25.50;99.90;;;;;;5107471;28;20076;-95
2021/06/19 07:25:13;;;;;;;14.07;8.23;;;25.50;99.90;;;;;;5111676;28;20537;-94
2021/06/19 07:27:39;;;;;;;12.85;8.88;;;25.60;99.90;;;;;;5110523;28;20023;-94
2021/06/19 07:30:07;;;;;;;13.55;8.98;;;25.60;99.90;;;;;;5111416;28;20030;-94
2021/06/19 07:32:33;;;;;;;12.88;8.80;;;25.60;99.90;;;;;;5113373;28;20043;-95
2021/06/19 07:34:58;;;;;;;13.75;9.35;;;25.50;99.90;;;;;;5112167;28;20178;-94
2021/06/19 07:37:24;;;;;;;15.02;9.85;;;25.60;99.90;;;;;;5112488;28;20027;-95
2021/06/19 07:39:53;;;;;;;16.45;9.55;;;25.90;99.90;;;;;;5115335;28;20047;-95
2021/06/19 07:42:22;;;;;;;14.13;9.50;;;25.80;99.90;;;;;;5116691;28;20103;-95
2021/06/19 07:44:48;;;;;;;17.50;10.75;;;26.20;99.90;;;;;;5115317;28;20030;-95
2021/06/19 07:47:13;;;;;;;16.25;9.68;;;26.30;99.90;;;;;;5117343;28;20035;-94
2021/06/19 07:49:39;;;;;;;18.15;10.52;;;26.60;99.90;;;;;;5113099;28;20023;-94
2021/06/19 07:52:05;;;;;;;14.07;9.10;;;26.70;99.90;;;;;;5112783;28;20023;-94
2021/06/19 07:54:30;;;;;;;12.27;9.75;;;26.80;99.90;;;;;;5109953;28;20031;-95
2021/06/19 07:56:56;;;;;;;15.77;10.13;;;26.80;99.90;;;;;;5114811;28;20031;-93
2021/06/19 07:59:22;;;;;;;12.57;10.25;;;26.80;99.90;;;;;;5115195;28;20042;-94
2021/06/19 08:01:47;;;;;;;16.55;10.30;;;26.80;99.90;;;;;;5115132;28;20019;-95
2021/06/19 08:04:13;;;;;;;15.95;10.40;;;26.90;99.90;;;;;;5113224;28;20073;-94
2021/06/19 08:06:38;;;;;;;12.88;9.90;;;26.70;99.90;;;;;;5126439;27;20051;-94
2021/06/19 08:09:04;;;;;;;12.40;9.35;;;26.70;99.90;;;;;;5112317;28;20387;-94
2021/06/19 08:11:30;;;;;;;18.15;9.80;;;27.00;99.90;;;;;;5111835;28;20051;-94
2021/06/19 08:13:56;;;;;;;14.30;9.75;;;27.10;99.90;;;;;;5112356;28;20446;-95
2021/06/19 08:16:22;;;;;;;15.85;10.13;;;27.00;99.90;;;;;;5113902;28;20442;-95
2021/06/19 08:18:48;;;;;;;12.90;9.23;;;27.00;99.90;;;;;;5114688;28;20068;-94
2021/06/19 08:21:14;;;;;;;11.23;9.02;;;27.30;99.90;;;;;;5114468;28;20023;-94
2021/06/19 08:23:40;;;;;;;14.18;9.63;;;27.20;99.90;;;;;;5115961;28;20032;-94
2021/06/19 08:26:05;;;;;;;18.10;9.30;;;27.50;99.90;;;;;;5115089;28;20024;-94
2021/06/19 08:28:33;;;;;;;14.70;8.90;;;27.60;99.90;;;;;;5114184;28;20026;-94
2021/06/19 08:30:59;;;;;;;12.63;9.10;;;27.80;99.90;;;;;;5104584;28;20024;-94
2021/06/19 08:33:24;;;;;;;12.23;9.18;;;27.60;99.90;;;;;;5099678;28;20105;-94
2021/06/19 08:35:50;;;;;;;15.07;9.32;;;27.80;99.90;;;;;;5114724;28;20039;-94
2021/06/19 08:38:16;;;;;;;13.15;8.73;;;27.70;99.90;;;;;;5116245;28;20034;-94
2021/06/19 08:40:41;;;;;;;15.63;9.35;;;28.00;99.90;;;;;;5114041;28;20031;-94
2021/06/19 08:43:07;;;;;;;16.83;9.20;;;27.90;99.90;;;;;;5113933;28;20103;-94
2021/06/19 08:45:34;;;;;;;12.80;8.80;;;27.80;99.90;;;;;;5114388;28;20400;-93
2021/06/19 08:48:01;;;;;;;13.00;8.55;;;27.90;99.90;;;;;;5113942;28;20032;-94
2021/06/19 08:50:28;;;;;;;14.77;8.98;;;28.00;99.90;;;;;;5116296;28;20030;-94
2021/06/19 08:52:53;;;;;;;13.30;9.10;;;27.40;99.90;;;;;;5111751;28;20421;-94
2021/06/19 08:55:19;;;;;;;11.23;8.20;;;27.60;99.90;;;;;;5112803;28;20110;-93
2021/06/19 08:57:45;;;;;;;13.48;7.97;;;27.70;99.90;;;;;;5112555;27;20161;-94
2021/06/19 09:00:13;;;;;;;15.68;8.40;;;27.60;99.90;;;;;;5113273;28;20023;-94
2021/06/19 09:02:39;;;;;;;10.07;7.88;;;27.60;99.90;;;;;;5114377;28;20118;-94
2021/06/19 09:05:12;;;;;;;13.45;7.72;;;27.60;99.90;;;;;;5115124;28;20047;-94
2021/06/19 09:07:49;;;;;;;10.18;7.30;;;27.80;99.90;;;;;;5113465;28;20020;-94
2021/06/19 09:10:18;;;;;;;11.38;7.85;;;28.00;99.90;;;;;;5112666;28;20106;-94
2021/06/19 09:13:08;;;;;;;10.88;7.18;;;27.60;99.90;;;;;;5112179;28;20036;-94
2021/06/19 09:15:50;;;;;;;8.57;7.70;;;27.70;99.90;;;;;;5115237;28;20031;-94
2021/06/19 09:18:29;;;;;;;8.45;6.88;;;27.50;99.90;;;;;;5115870;27;20019;-94
2021/06/19 09:21:04;;;;;;;9.30;6.50;;;27.40;99.90;;;;;;5111931;28;20426;-93
2021/06/19 09:23:38;;;;;;;9.32;6.60;;;27.30;99.90;;;;;;5111432;28;20114;-94
2021/06/19 09:26:17;;;;;;;10.82;6.60;;;27.60;99.90;;;;;;5113797;28;20096;-94
2021/06/19 09:28:58;;;;;;;7.03;5.82;;;27.60;99.90;;;;;;5112988;28;20027;-94
2021/06/19 09:31:39;;;;;;;7.97;5.90;;;27.60;99.90;;;;;;5112947;28;20498;-93
2021/06/19 09:34:09;;;;;;;9.32;6.03;;;27.80;99.90;;;;;;5113365;28;20047;-94
2021/06/19 09:36:51;;;;;;;10.48;6.65;;;27.80;99.90;;;;;;5112182;28;20026;-94
2021/06/19 09:39:23;;;;;;;11.35;7.00;;;27.90;99.90;;;;;;5099100;28;20028;-94
2021/06/19 09:41:51;;;;;;;13.20;6.68;;;28.10;99.90;;;;;;5111327;28;20024;-94
2021/06/19 09:44:46;;;;;;;9.30;7.00;;;28.10;99.90;;;;;;5113778;28;20044;-94
2021/06/19 09:47:13;;;;;;;8.00;7.03;;;28.00;99.90;;;;;;5114502;28;20046;-94
2021/06/19 09:49:46;;;;;;;11.90;6.82;;;28.30;99.90;;;;;;5113719;28;20034;-94
2021/06/19 09:52:13;;;;;;;7.90;6.70;;;28.50;99.90;;;;;;5113532;28;20028;-93
2021/06/19 09:54:40;;;;;;;10.63;7.00;;;28.20;99.90;;;;;;5111429;28;20118;-94
2021/06/19 09:57:11;;;;;;;12.07;6.93;;;28.00;99.90;;;;;;5112601;28;20024;-93
2021/06/19 09:59:38;;;;;;;11.52;6.93;;;27.80;99.90;;;;;;5113119;28;20024;-93
2021/06/19 10:02:18;;;;;;;8.57;6.68;;;27.80;99.90;;;;;;5108022;28;20080;-92
2021/06/19 10:04:50;;;;;;;11.10;7.30;;;27.90;99.90;;;;;;5113610;28;20031;-93
2021/06/19 10:07:17;;;;;;;9.50;7.30;;;28.40;99.90;;;;;;5112460;27;20032;-93
2021/06/19 10:09:48;;;;;;;11.13;7.80;;;29.00;99.90;;;;;;5110797;28;20424;-94
2021/06/19 10:12:16;;;;;;;13.48;7.65;;;28.80;99.90;;;;;;5108563;28;20119;-94
2021/06/19 10:14:44;;;;;;;11.07;7.07;;;28.60;99.90;;;;;;5110406;28;20074;-94
2021/06/19 10:17:10;;;;;;;10.65;7.20;;;28.80;99.90;;;;;;5112312;28;20064;-94
2021/06/19 10:19:36;;;;;;;11.93;6.43;;;28.60;99.90;;;;;;5110570;28;20024;-93
2021/06/19 10:22:02;;;;;;;10.02;6.82;;;28.80;99.90;;;;;;5112080;28;20024;-93
2021/06/19 10:24:27;;;;;;;8.90;7.00;;;28.70;99.90;;;;;;5111894;28;20012;-93
2021/06/19 10:26:55;;;;;;;7.75;6.25;;;29.10;99.90;;;;;;5112918;28;20031;-93
2021/06/19 10:29:27;;;;;;;12.05;6.82;;;29.30;99.90;;;;;;5113722;28;20026;-94
2021/06/19 10:31:54;;;;;;;7.85;6.50;;;30.00;99.90;;;;;;5110755;28;20040;-94
2021/06/19 10:34:28;;;;;;;9.70;6.30;;;29.60;99.90;;;;;;5110759;28;20046;-93
2021/06/19 10:36:59;;;;;;;11.50;6.13;;;29.70;99.90;;;;;;5111388;28;20034;-93
2021/06/19 10:39:34;;;;;;;9.88;6.40;;;30.50;99.90;;;;;;5111799;28;20034;-93
2021/06/19 10:41:59;;;;;;;10.07;6.10;;;30.20;99.90;;;;;;5096464;28;20484;-94
2021/06/19 10:45:05;;;;;;;8.55;5.68;;;30.40;99.90;;;;;;5114050;28;20037;-93
2021/06/19 10:47:59;;;;;;;9.30;6.32;;;30.40;99.90;;;;;;5027843;28;20026;-93
2021/06/19 10:50:25;;;;;;;10.38;6.10;;;30.50;99.90;;;;;;5031269;28;20042;-94
2021/06/19 10:53:14;;;;;;;9.50;6.43;;;30.50;99.90;;;;;;5029387;28;20041;-93
2021/06/19 10:55:42;;;;;;;9.95;6.50;;;30.10;99.90;;;;;;5005595;28;20128;-93
2021/06/19 10:58:22;;;;;;;9.93;6.35;;;29.50;99.90;;;;;;5005414;28;20605;-94
2021/06/19 11:00:56;;;;;;;9.45;5.78;;;29.70;99.90;;;;;;5005982;28;20140;-93
2021/06/19 11:03:47;;;;;;;10.68;6.32;;;30.10;99.90;;;;;;4998894;28;20029;-94
2021/06/19 11:06:27;;;;;;;11.35;5.93;;;30.40;99.90;;;;;;5007076;28;20035;-93
2021/06/19 11:09:34;;;;;;;8.95;6.35;;;30.40;99.90;;;;;;4992014;28;20057;-93
2021/06/19 11:12:02;;;;;;;9.05;6.53;;;30.70;99.90;;;;;;4989236;28;20034;-93
2021/06/19 11:14:40;;;;;;;10.38;6.85;;;29.80;99.90;;;;;;5011199;28;20057;-93
2021/06/19 11:17:32;;;;;;;11.05;7.00;;;30.40;99.90;;;;;;5012754;28;20087;-93
2021/06/19 11:20:02;;;;;;;11.32;6.60;;;30.80;99.90;;;;;;5080646;28;20047;-94
2021/06/19 11:22:37;;;;;;;12.18;6.75;;;31.20;99.90;;;;;;5081919;28;20044;-93
2021/06/19 11:26:07;;;;;;;9.73;6.45;;;31.40;99.90;;;;;;5080334;28;20069;-93
2021/06/19 11:28:12;;;;;;;14.82;6.88;;;31.20;99.90;;;;;;5071459;28;20025;-94
2021/06/19 11:30:44;;;;;;;9.60;7.13;;;31.00;99.90;;;;;;5078338;28;20029;-93
2021/06/19 11:33:15;;;;;;;11.80;6.57;;;31.10;99.90;;;;;;5093010;28;20044;-92
2021/06/19 11:35:45;;;;;;;10.23;6.50;;;31.10;99.90;;;;;;5115882;28;20130;-93
2021/06/19 11:38:11;;;;;;;11.98;6.78;;;31.30;99.90;;;;;;5127871;27;20019;-93
2021/06/19 11:40:37;;;;;;;9.93;6.13;;;31.80;99.90;;;;;;5114609;28;20023;-93
2021/06/19 11:43:08;;;;;;;11.30;7.35;;;31.10;99.90;;;;;;5125664;27;20031;-93
2021/06/19 11:45:34;;;;;;;14.35;6.50;;;32.10;99.90;;;;;;5101891;28;20016;-93
2021/06/19 11:48:04;;;;;;;11.77;6.78;;;31.60;99.90;;;;;;5098397;28;20028;-93
2021/06/19 11:50:37;;;;;;;14.10;6.90;;;31.40;99.90;;;;;;5128605;27;20458;-92
2021/06/19 11:53:26;;;;;;;12.30;6.47;;;32.10;99.90;;;;;;5115157;28;20075;-93
2021/06/19 11:56:04;;;;;;;10.13;6.55;;;31.70;99.90;;;;;;5115241;28;20038;-93
2021/06/19 11:58:46;;;;;;;10.88;6.45;;;32.20;99.90;;;;;;5112211;28;20024;-93
2021/06/19 12:01:13;;;;;;;23.50;7.50;;;31.70;99.90;;;;;;5108748;28;20027;-93
2021/06/19 12:03:39;;;;;;;10.13;6.38;;;32.20;99.90;;;;;;5114714;28;20061;-93
2021/06/19 12:06:05;;;;;;;15.13;7.20;;;32.20;99.90;;;;;;5114030;28;20071;-93
2021/06/19 12:08:32;;;;;;;15.13;6.88;;;32.60;99.90;;;;;;5116677;28;20019;-94
2021/06/19 12:10:57;;;;;;;11.43;6.78;;;32.40;99.90;;;;;;5114114;28;20027;-93
2021/06/19 12:13:35;;;;;;;19.83;6.97;;;32.80;99.90;;;;;;5113309;28;20039;-93
2021/06/19 12:16:03;;;;;;;11.70;7.05;;;33.20;99.90;;;;;;5113049;28;20148;-93
2021/06/19 12:18:28;;;;;;;16.33;7.38;;;33.20;99.90;;;;;;5112449;28;20388;-93
2021/06/19 12:21:09;;;;;;;12.73;6.80;;;33.40;99.90;;;;;;5113809;28;20024;-93
2021/06/19 12:23:45;;;;;;;21.75;6.85;;;34.20;99.90;;;;;;5111756;28;20027;-93
2021/06/19 12:26:15;;;;;;;20.38;7.28;;;34.60;99.90;;;;;;5115836;28;20022;-94
2021/06/19 12:28:46;;;;;;;15.05;7.03;;;33.50;99.90;;;;;;5112655;28;20034;-93
2021/06/19 12:31:15;;;;;;;11.23;6.40;;;34.20;99.90;;;;;;5112758;28;20019;-93
2021/06/19 12:33:43;;;;;;;11.63;6.45;;;34.70;99.90;;;;;;5113403;28;20092;-93
2021/06/19 12:36:10;;;;;;;11.43;6.65;;;35.60;99.90;;;;;;5113821;28;20020;-92
2021/06/19 12:38:36;;;;;;;10.57;6.50;;;35.10;99.90;;;;;;5114160;28;20031;-93
2021/06/19 12:41:05;;;;;;;11.70;7.03;;;34.40;99.90;;;;;;5114458;28;20015;-93
2021/06/19 12:43:31;;;;;;;9.90;6.50;;;34.80;99.90;;;;;;5113372;28;20498;-93
2021/06/19 12:45:57;;;;;;;13.10;6.38;;;36.00;99.90;;;;;;5113376;28;20051;-92